createdAt,value
2022-09-15T00:02:17.177Z,4.78
2022-09-15T00:05:20.280Z,5.00
2022-09-15T00:08:24.698Z,6.40
2022-09-15T00:11:31.937Z,6.43
2022-09-15T00:14:35.057Z,6.88
2022-09-15T00:17:38.387Z,2.50
2022-09-15T00:20:43.382Z,2.10
2022-09-15T00:23:48.460Z,2.07
2022-09-15T00:26:51.803Z,1.35
2022-09-15T00:29:56.109Z,1.23
2022-09-15T00:32:59.426Z,1.77
2022-09-15T00:36:06.485Z,1.57
2022-09-15T00:39:10.092Z,1.50
2022-09-15T00:42:22.665Z,1.90
2022-09-15T00:45:26.238Z,2.35
2022-09-15T00:48:30.606Z,1.55
2022-09-15T00:51:41.801Z,1.90
2022-09-15T00:55:02.781Z,2.27
2022-09-15T00:58:09.402Z,1.90
2022-09-15T01:01:15.481Z,1.42
2022-09-15T01:04:18.712Z,1.67
2022-09-15T01:07:35.876Z,1.20
2022-09-15T01:10:41.796Z,1.67
2022-09-15T01:13:46.111Z,1.30
2022-09-15T01:17:12.631Z,1.23
2022-09-15T01:20:53.337Z,1.05
2022-09-15T01:24:20.939Z,1.20
2022-09-15T01:28:01.152Z,1.30
2022-09-15T01:31:10.348Z,0.70
2022-09-15T01:34:19.830Z,1.27
2022-09-15T01:37:31.745Z,1.92
2022-09-15T01:40:51.040Z,1.30
2022-09-15T01:44:03.044Z,2.67
2022-09-15T01:47:10.731Z,1.90
2022-09-15T01:50:24.038Z,1.23
2022-09-15T01:53:28.827Z,1.20
2022-09-15T01:56:33.185Z,1.20
2022-09-15T01:59:36.829Z,2.67
2022-09-15T02:02:46.360Z,1.55
2022-09-15T02:06:03.223Z,1.83
2022-09-15T02:09:22.419Z,3.10
2022-09-15T02:12:37.794Z,1.30
2022-09-15T02:15:48.906Z,0.70
2022-09-15T02:19:36.794Z,1.23
2022-09-15T02:22:41.836Z,8.35
2022-09-15T02:25:52.161Z,1.83
2022-09-15T02:28:59.865Z,2.10
2022-09-15T02:32:07.437Z,2.20
2022-09-15T02:35:12.491Z,3.58
2022-09-15T02:38:16.113Z,1.40
2022-09-15T02:41:20.481Z,1.30
2022-09-15T02:44:24.192Z,1.77
2022-09-15T02:47:31.939Z,1.83
2022-09-15T02:50:34.859Z,1.38
2022-09-15T02:53:38.253Z,1.90
2022-09-15T02:56:41.917Z,1.60
2022-09-15T03:00:04.036Z,1.23
2022-09-15T03:03:10.174Z,1.43
2022-09-15T03:06:21.838Z,2.30
2022-09-15T03:09:25.235Z,1.70
2022-09-15T03:12:29.555Z,1.27
2022-09-15T03:15:34.252Z,1.70
2022-09-15T03:18:39.119Z,1.60
2022-09-15T03:21:42.510Z,1.48
2022-09-15T03:24:45.555Z,1.40
2022-09-15T03:27:48.835Z,1.50
2022-09-15T03:30:51.802Z,1.47
2022-09-15T03:33:56.563Z,1.60
2022-09-15T03:37:00.202Z,3.42
2022-09-15T03:40:04.459Z,2.20
2022-09-15T03:43:08.570Z,1.70
2022-09-15T03:46:12.875Z,1.90
2022-09-15T03:49:16.981Z,1.77
2022-09-15T03:52:20.628Z,2.00
2022-09-15T03:55:24.478Z,2.20
2022-09-15T03:58:30.734Z,3.65
2022-09-15T04:01:35.795Z,1.50
2022-09-15T04:04:39.554Z,2.67
2022-09-15T04:07:43.655Z,1.90
2022-09-15T04:10:46.841Z,2.00
2022-09-15T04:13:51.340Z,1.90
2022-09-15T04:16:55.323Z,1.87
2022-09-15T04:19:59.309Z,1.67
2022-09-15T04:23:02.972Z,1.90
2022-09-15T04:26:10.736Z,1.60
2022-09-15T04:29:17.959Z,1.73
2022-09-15T04:32:22.902Z,2.40
2022-09-15T04:35:26.688Z,2.63
2022-09-15T04:38:30.930Z,3.80
2022-09-15T04:41:35.058Z,2.20
2022-09-15T04:44:39.091Z,2.03
2022-09-15T04:47:42.871Z,1.63
2022-09-15T04:50:47.089Z,2.00
2022-09-15T04:53:52.238Z,1.20
2022-09-15T04:56:55.693Z,1.88
2022-09-15T04:59:59.326Z,1.20
2022-09-15T05:03:03.586Z,1.33
2022-09-15T05:06:09.451Z,1.50
2022-09-15T05:09:15.140Z,1.10
2022-09-15T05:12:19.205Z,1.85
2022-09-15T05:15:22.969Z,1.40
2022-09-15T05:18:27.114Z,1.60
2022-09-15T05:21:31.431Z,1.40
2022-09-15T05:24:35.189Z,1.83
2022-09-15T05:27:40.190Z,1.85
2022-09-15T05:30:44.524Z,1.58
2022-09-15T05:33:50.247Z,1.40
2022-09-15T05:36:53.935Z,1.67
2022-09-15T05:40:01.782Z,1.70
2022-09-15T05:43:06.832Z,2.30
2022-09-15T05:46:11.768Z,2.00
2022-09-15T05:49:15.520Z,1.93
2022-09-15T05:52:19.410Z,2.13
2022-09-15T05:55:23.793Z,2.30
2022-09-15T05:58:27.451Z,1.50
2022-09-15T06:01:32.229Z,1.17
2022-09-15T06:04:35.943Z,1.40
2022-09-15T06:07:40.361Z,2.47
2022-09-15T06:10:44.017Z,1.75
2022-09-15T06:13:48.375Z,1.60
2022-09-15T06:16:52.098Z,2.72
2022-09-15T06:19:55.955Z,1.47
2022-09-15T06:23:00.060Z,1.37
2022-09-15T06:26:19.509Z,1.08
2022-09-15T06:29:22.337Z,1.70
2022-09-15T06:32:25.663Z,1.60
2022-09-15T06:35:29.343Z,1.40
2022-09-15T06:38:32.755Z,1.97
2022-09-15T06:42:00.772Z,1.33
2022-09-15T06:45:05.379Z,1.30
2022-09-15T06:48:24.011Z,1.48
2022-09-15T06:51:32.187Z,1.33
2022-09-15T06:54:35.823Z,1.63
2022-09-15T06:57:39.825Z,1.40
2022-09-15T07:00:43.728Z,2.25
2022-09-15T07:03:48.032Z,2.50
2022-09-15T07:06:51.647Z,1.60
2022-09-15T07:09:56.596Z,3.23
2022-09-15T07:13:01.804Z,2.28
2022-09-15T07:16:08.233Z,2.50
2022-09-15T07:19:12.231Z,1.95
2022-09-15T07:22:16.288Z,2.57
2022-09-15T07:25:20.008Z,2.43
2022-09-15T07:28:24.041Z,2.42
2022-09-15T07:31:30.275Z,1.80
2022-09-15T07:34:34.777Z,2.30
2022-09-15T07:37:38.960Z,2.27
2022-09-15T07:40:43.073Z,2.23
2022-09-15T07:43:55.023Z,2.03
2022-09-15T07:46:58.332Z,3.50
2022-09-15T07:50:02.111Z,1.80
2022-09-15T07:53:06.155Z,1.90
2022-09-15T07:56:09.966Z,2.70
2022-09-15T07:59:13.645Z,2.20
2022-09-15T08:02:19.587Z,2.10
2022-09-15T08:05:28.915Z,3.67
2022-09-15T08:08:32.781Z,2.37
2022-09-15T08:11:36.477Z,2.13
2022-09-15T08:14:39.520Z,2.63
2022-09-15T08:17:43.414Z,1.42
2022-09-15T08:20:47.042Z,1.00
2022-09-15T08:23:59.072Z,1.43
2022-09-15T08:27:02.039Z,1.50
2022-09-15T08:30:07.742Z,1.90
2022-09-15T08:33:11.418Z,3.63
2022-09-15T08:36:14.555Z,2.83
2022-09-15T08:39:17.512Z,3.30
2022-09-15T08:42:22.889Z,2.50
2022-09-15T08:45:36.769Z,3.53
2022-09-15T08:48:47.030Z,3.70
2022-09-15T08:51:52.744Z,5.03
2022-09-15T08:54:59.840Z,2.80
2022-09-15T08:58:04.167Z,2.40
2022-09-15T09:01:18.697Z,2.05
2022-09-15T09:04:40.263Z,1.90
2022-09-15T09:08:20.242Z,1.83
2022-09-15T09:11:55.528Z,2.13
2022-09-15T09:15:07.812Z,2.00
2022-09-15T09:18:54.044Z,1.95
2022-09-15T09:22:04.259Z,1.50
2022-09-15T09:25:26.817Z,3.63
2022-09-15T09:28:59.382Z,2.50
2022-09-15T09:32:04.249Z,1.93
2022-09-15T09:35:32.109Z,3.40
2022-09-15T09:38:40.277Z,2.80
2022-09-15T09:41:45.528Z,2.10
2022-09-15T09:44:49.165Z,2.53
2022-09-15T09:47:56.340Z,2.17
2022-09-15T09:51:01.278Z,2.33
2022-09-15T09:54:16.780Z,2.67
2022-09-15T09:57:35.101Z,2.13
2022-09-15T10:00:42.407Z,2.00
2022-09-15T10:03:46.366Z,2.40
2022-09-15T10:06:50.514Z,1.98
2022-09-15T10:09:59.567Z,2.30
2022-09-15T10:13:04.791Z,2.35
2022-09-15T10:16:08.242Z,2.20
2022-09-15T10:19:15.609Z,2.87
2022-09-15T10:22:40.952Z,3.30
2022-09-15T10:25:58.706Z,2.58
2022-09-15T10:29:16.102Z,3.60
2022-09-15T10:32:28.943Z,4.00
2022-09-15T10:35:34.032Z,4.90
2022-09-15T10:38:46.469Z,4.53
2022-09-15T10:42:05.509Z,4.18
2022-09-15T10:45:17.176Z,4.03
2022-09-15T10:48:20.237Z,4.67
2022-09-15T10:51:32.180Z,4.73
2022-09-15T10:55:09.199Z,4.65
2022-09-15T10:58:39.913Z,4.93
2022-09-15T11:02:02.038Z,5.15
2022-09-15T11:05:31.772Z,4.40
2022-09-15T11:09:06.912Z,3.93
2022-09-15T11:12:44.049Z,5.95
2022-09-15T11:16:29.023Z,3.42
2022-09-15T11:19:35.177Z,2.55
2022-09-15T11:22:49.449Z,2.63
2022-09-15T11:26:05.056Z,2.47
2022-09-15T11:29:38.091Z,2.65
2022-09-15T11:32:52.860Z,3.22
2022-09-15T11:36:04.387Z,3.47
2022-09-15T11:39:17.629Z,3.10
2022-09-15T11:42:31.519Z,2.53
2022-09-15T11:45:46.994Z,3.83
2022-09-15T11:49:05.274Z,2.90
2022-09-15T11:52:15.785Z,2.83
2022-09-15T11:55:28.861Z,3.07
2022-09-15T11:58:45.006Z,3.27
2022-09-15T12:01:51.622Z,3.47
2022-09-15T12:05:14.955Z,3.33
2022-09-15T12:08:28.184Z,2.63
2022-09-15T12:11:39.321Z,3.43
2022-09-15T12:14:48.623Z,5.10
2022-09-15T12:18:06.431Z,3.65
2022-09-15T12:21:39.510Z,3.00
2022-09-15T12:25:07.479Z,3.42
2022-09-15T12:28:23.283Z,3.57
2022-09-15T12:31:37.188Z,3.07
2022-09-15T12:34:40.194Z,3.95
2022-09-15T12:37:47.689Z,3.53
2022-09-15T12:41:00.063Z,4.18
2022-09-15T12:44:13.358Z,3.70
2022-09-15T12:47:29.197Z,3.83
2022-09-15T12:50:37.395Z,3.95
2022-09-15T12:53:53.499Z,3.47
2022-09-15T12:56:58.679Z,4.13
2022-09-15T13:00:33.427Z,4.07
2022-09-15T13:07:20.384Z,4.10
2022-09-15T13:10:31.150Z,5.47
2022-09-15T13:13:53.157Z,5.13
2022-09-15T13:17:08.097Z,4.27
2022-09-15T13:20:19.071Z,5.43
2022-09-15T13:23:26.663Z,5.22
2022-09-15T13:26:32.693Z,4.80
2022-09-15T13:29:48.089Z,4.93
2022-09-15T13:32:57.614Z,4.67
2022-09-15T13:40:46.394Z,4.70
2022-09-15T13:44:13.084Z,4.95
2022-09-15T13:47:16.010Z,5.35
2022-09-15T13:50:26.515Z,5.47
2022-09-15T13:53:48.185Z,5.53
2022-09-15T13:56:54.208Z,6.20
2022-09-15T13:59:58.652Z,6.32
2022-09-15T14:03:12.735Z,6.10
2022-09-15T14:06:21.722Z,5.57
2022-09-15T14:09:29.320Z,5.77
2022-09-15T14:12:35.932Z,4.78
2022-09-15T14:15:40.108Z,4.10
2022-09-15T14:18:44.976Z,4.32
2022-09-15T14:21:56.232Z,3.60
2022-09-15T14:25:07.568Z,3.30
2022-09-15T14:28:20.361Z,3.63
2022-09-15T14:31:37.472Z,3.30
2022-09-15T14:34:43.244Z,2.90
2022-09-15T14:38:04.699Z,2.40
2022-09-15T14:41:20.287Z,2.30
2022-09-15T14:48:15.837Z,1.67
2022-09-15T14:51:25.894Z,2.40
2022-09-15T14:54:37.295Z,1.90
2022-09-15T15:01:10.899Z,1.75
2022-09-15T15:04:21.203Z,2.15
2022-09-15T15:07:29.749Z,1.58
2022-09-15T15:10:36.001Z,2.80
2022-09-15T15:13:43.137Z,5.67
2022-09-15T15:17:02.878Z,4.78
2022-09-15T15:20:09.621Z,3.03
2022-09-15T15:23:29.223Z,2.22
2022-09-15T15:26:38.703Z,1.30
2022-09-15T15:29:46.994Z,1.13
2022-09-15T15:32:50.140Z,0.85
2022-09-15T15:36:08.138Z,0.65
2022-09-15T15:39:25.106Z,0.80
2022-09-15T15:42:29.869Z,0.87
2022-09-15T15:45:47.973Z,1.30
2022-09-15T15:48:53.371Z,0.70
2022-09-15T15:51:58.996Z,0.93
2022-09-15T15:55:01.997Z,1.20
2022-09-15T15:58:06.105Z,0.80
2022-09-15T16:01:12.888Z,0.60
2022-09-15T16:04:16.625Z,0.65
2022-09-15T16:07:23.779Z,0.50
2022-09-15T16:10:30.596Z,0.60
2022-09-15T16:13:33.585Z,0.80
2022-09-15T16:16:36.613Z,0.80
2022-09-15T16:19:40.962Z,0.73
2022-09-15T16:22:44.844Z,0.60
2022-09-15T16:26:03.489Z,0.55
2022-09-15T16:29:06.944Z,0.60
2022-09-15T16:32:31.967Z,0.53
2022-09-15T16:35:57.047Z,0.68
2022-09-15T16:39:00.310Z,0.50
2022-09-15T16:42:04.105Z,0.60
2022-09-15T16:45:36.601Z,0.80
2022-09-15T16:48:44.575Z,0.50
2022-09-15T16:51:48.459Z,0.40
2022-09-15T16:54:52.101Z,0.40
2022-09-15T16:57:56.132Z,0.50
2022-09-15T17:00:59.682Z,0.43
2022-09-15T17:04:03.988Z,0.40
2022-09-15T17:07:06.921Z,0.47
2022-09-15T17:10:09.956Z,0.47
2022-09-15T17:13:18.789Z,0.50
2022-09-15T17:16:22.031Z,0.40
2022-09-15T17:19:25.278Z,0.40
2022-09-15T17:22:28.447Z,0.50
2022-09-15T17:25:36.492Z,0.50
2022-09-15T17:28:40.066Z,0.55
2022-09-15T17:31:43.402Z,0.40
2022-09-15T17:34:47.160Z,0.40
2022-09-15T17:37:51.872Z,0.45
2022-09-15T17:40:58.122Z,0.50
2022-09-15T17:44:01.223Z,0.30
2022-09-15T17:47:04.444Z,0.30
2022-09-15T17:50:08.084Z,0.30
2022-09-15T17:53:14.064Z,0.30
2022-09-15T17:56:17.752Z,0.32
2022-09-15T17:59:20.705Z,0.38
2022-09-15T18:02:24.672Z,0.20
2022-09-15T18:05:34.456Z,0.40
2022-09-15T18:08:38.613Z,0.30
2022-09-15T18:11:41.667Z,0.20
2022-09-15T18:14:45.208Z,0.30
2022-09-15T18:17:53.255Z,0.30
2022-09-15T18:20:58.793Z,0.30
2022-09-15T18:24:02.688Z,0.30
2022-09-15T18:27:07.208Z,0.60
2022-09-15T18:30:11.892Z,0.20
2022-09-15T18:33:20.679Z,1.00
2022-09-15T18:36:24.378Z,0.40
2022-09-15T18:39:27.841Z,0.40
2022-09-15T18:42:32.052Z,0.30
2022-09-15T18:45:35.638Z,0.40
2022-09-15T18:48:38.651Z,0.30
2022-09-15T18:51:57.782Z,0.50
2022-09-15T18:55:15.215Z,0.32
2022-09-15T18:58:20.279Z,0.40
2022-09-15T19:01:24.052Z,0.40
2022-09-15T19:04:31.840Z,0.40
2022-09-15T19:07:37.351Z,0.30
2022-09-15T19:10:43.515Z,0.45
2022-09-15T19:13:47.206Z,0.30
2022-09-15T19:16:57.746Z,0.20
2022-09-15T19:20:02.357Z,0.30
2022-09-15T19:23:05.598Z,1.10
2022-09-15T19:26:16.379Z,0.30
2022-09-15T19:29:19.825Z,0.30
2022-09-15T19:32:23.282Z,0.37
2022-09-15T19:35:26.945Z,0.30
2022-09-15T19:38:30.641Z,0.20
2022-09-15T19:41:34.360Z,0.40
2022-09-15T19:44:37.921Z,0.37
2022-09-15T19:47:41.114Z,0.30
2022-09-15T19:50:44.439Z,0.28
2022-09-15T19:53:48.110Z,0.30
2022-09-15T19:56:52.716Z,0.70
2022-09-15T19:59:55.674Z,0.20
2022-09-15T20:02:58.932Z,0.40
2022-09-15T20:06:06.384Z,0.50
2022-09-15T20:09:11.162Z,0.50
2022-09-15T20:12:15.077Z,0.30
2022-09-15T20:15:19.401Z,0.37
2022-09-15T20:18:23.297Z,0.20
2022-09-15T20:21:49.258Z,0.30
2022-09-15T20:24:53.081Z,0.20
2022-09-15T20:27:57.292Z,0.30
2022-09-15T20:31:06.247Z,0.20
2022-09-15T20:34:10.015Z,0.20
2022-09-15T20:37:14.059Z,0.20
2022-09-15T20:40:17.933Z,0.40
2022-09-15T20:43:22.352Z,0.40
2022-09-15T20:46:26.381Z,0.30
2022-09-15T20:49:30.465Z,0.60
2022-09-15T20:52:38.283Z,0.38
2022-09-15T20:55:49.542Z,0.40
2022-09-15T20:58:54.274Z,0.30
2022-09-15T21:01:58.180Z,0.37
2022-09-15T21:05:01.287Z,0.33
2022-09-15T21:08:04.480Z,0.40
2022-09-15T21:11:11.558Z,0.47
2022-09-15T21:14:15.608Z,0.50
2022-09-15T21:17:19.336Z,0.40
2022-09-15T21:20:23.188Z,0.30
2022-09-15T21:23:27.828Z,0.35
2022-09-15T21:26:36.481Z,0.70
2022-09-15T21:29:39.872Z,0.60
2022-09-15T21:32:42.969Z,0.30
2022-09-15T21:35:49.982Z,0.30
2022-09-15T21:38:55.092Z,0.30
2022-09-15T21:41:58.593Z,0.63
2022-09-15T21:45:02.235Z,0.30
2022-09-15T21:48:05.958Z,0.40
2022-09-15T21:51:11.007Z,0.30
2022-09-15T21:54:14.418Z,0.40
2022-09-15T21:57:17.494Z,0.50
2022-09-15T22:00:21.289Z,0.40
2022-09-15T22:03:24.577Z,0.40
2022-09-15T22:06:34.127Z,1.20
2022-09-15T22:09:39.214Z,0.70
2022-09-15T22:12:42.530Z,0.52
2022-09-15T22:15:45.494Z,0.80
2022-09-15T22:18:50.355Z,0.70
2022-09-15T22:21:53.730Z,0.40
2022-09-15T22:24:56.674Z,0.70
2022-09-15T22:27:59.645Z,0.32
2022-09-15T22:31:05.649Z,0.80
2022-09-15T22:34:09.128Z,0.50
2022-09-15T22:37:12.078Z,0.37
2022-09-15T22:40:17.885Z,1.83
2022-09-15T22:43:22.221Z,0.60
2022-09-15T22:46:26.788Z,1.80
2022-09-15T22:49:30.014Z,0.70
2022-09-15T22:52:33.294Z,0.60
2022-09-15T22:55:36.339Z,0.98
2022-09-15T22:58:44.199Z,1.10
2022-09-15T23:01:48.060Z,0.60
2022-09-15T23:04:51.369Z,1.00
2022-09-15T23:07:54.391Z,1.20
2022-09-15T23:11:03.455Z,0.60
2022-09-15T23:14:08.151Z,1.60
2022-09-15T23:17:11.451Z,0.80
2022-09-15T23:20:15.049Z,0.90
2022-09-15T23:23:18.349Z,2.30
2022-09-15T23:26:24.323Z,0.98
2022-09-15T23:29:27.738Z,1.00
2022-09-15T23:32:31.327Z,1.80
2022-09-15T23:35:34.533Z,1.90
2022-09-15T23:38:40.345Z,0.83
2022-09-15T23:41:44.594Z,0.90
2022-09-15T23:44:48.342Z,0.50
2022-09-15T23:47:52.597Z,1.20
2022-09-15T23:50:56.334Z,1.17
2022-09-15T23:54:00.320Z,1.80
2022-09-15T23:57:04.116Z,1.95
